createdAt,value
2023-04-14T00:00:20.245Z,13.13
2023-04-14T00:02:24.715Z,11.32
2023-04-14T00:04:29.110Z,9.27
2023-04-14T00:06:30.871Z,6.75
2023-04-14T00:08:32.306Z,11.43
2023-04-14T00:12:39.638Z,11.15
2023-04-14T00:16:48.001Z,5.55
2023-04-14T00:18:50.795Z,8.90
2023-04-14T00:20:56.178Z,3.53
2023-04-14T00:23:16.168Z,1.70
2023-04-14T00:25:17.781Z,3.60
2023-04-14T00:27:19.230Z,3.60
2023-04-14T00:29:23.838Z,1.48
2023-04-14T00:33:29.467Z,1.55
2023-04-14T00:37:39.537Z,1.92
2023-04-14T00:39:43.632Z,2.38
2023-04-14T00:41:50.453Z,3.95
2023-04-14T00:43:55.391Z,4.03
2023-04-14T00:45:57.774Z,3.88
2023-04-14T00:47:59.782Z,4.28
2023-04-14T00:50:05.576Z,1.70
2023-04-14T00:52:08.160Z,18.08
2023-04-14T00:54:29.737Z,4.97
2023-04-14T00:56:33.317Z,4.57
2023-04-14T00:58:38.465Z,3.28
2023-04-14T01:00:40.101Z,4.93
2023-04-14T01:04:54.425Z,8.52
2023-04-14T01:07:16.950Z,9.73
2023-04-14T01:09:39.148Z,9.77
2023-04-14T01:12:02.817Z,9.02
2023-04-14T01:14:07.037Z,15.77
2023-04-14T01:16:13.673Z,13.05
2023-04-14T01:18:25.733Z,13.15
2023-04-14T01:20:42.373Z,12.40
2023-04-14T01:22:55.415Z,11.17
2023-04-14T01:25:18.024Z,8.43
2023-04-14T01:27:19.533Z,11.55
2023-04-14T01:29:37.733Z,5.60
2023-04-14T01:32:06.026Z,9.07
2023-04-14T01:34:14.417Z,7.28
2023-04-14T01:36:23.380Z,9.45
2023-04-14T01:38:30.224Z,12.13
2023-04-14T01:40:33.026Z,8.77
2023-04-14T01:42:36.670Z,5.82
2023-04-14T01:44:40.533Z,3.55
2023-04-14T01:46:45.475Z,5.00
2023-04-14T01:48:48.005Z,12.73
2023-04-14T01:50:53.313Z,12.55
2023-04-14T01:52:58.400Z,9.82
2023-04-14T01:55:05.790Z,6.97
2023-04-14T01:57:26.538Z,7.40
2023-04-14T01:59:29.064Z,13.27
2023-04-14T02:01:32.485Z,12.18
2023-04-14T02:03:37.236Z,15.30
2023-04-14T02:05:42.342Z,9.05
2023-04-14T02:07:47.356Z,8.18
2023-04-14T02:09:49.261Z,6.85
2023-04-14T02:11:51.771Z,7.93
2023-04-14T02:13:54.909Z,12.70
2023-04-14T02:15:57.774Z,9.80
2023-04-14T02:18:19.332Z,7.28
2023-04-14T02:20:23.501Z,24.48
2023-04-14T02:22:27.877Z,8.40
2023-04-14T02:24:30.736Z,7.30
2023-04-14T02:26:32.811Z,6.20
2023-04-14T02:28:40.463Z,13.38
2023-04-14T02:30:44.550Z,7.45
2023-04-14T02:32:51.967Z,10.43
2023-04-14T02:35:00.835Z,9.32
2023-04-14T02:37:09.355Z,9.43
2023-04-14T02:39:39.599Z,4.93
2023-04-14T02:41:43.392Z,7.78
2023-04-14T02:43:49.156Z,10.85
2023-04-14T02:45:55.806Z,8.13
2023-04-14T02:48:03.429Z,16.15
2023-04-14T02:50:05.792Z,7.22
2023-04-14T02:52:10.778Z,8.10
2023-04-14T02:54:32.353Z,8.15
2023-04-14T02:56:36.682Z,6.78
2023-04-14T02:58:41.241Z,14.35
2023-04-14T03:00:46.686Z,4.25
2023-04-14T03:02:48.417Z,5.05
2023-04-14T03:04:50.300Z,10.38
2023-04-14T03:06:54.742Z,8.40
2023-04-14T03:09:00.394Z,6.18
2023-04-14T03:11:05.316Z,14.77
2023-04-14T03:13:09.888Z,5.40
2023-04-14T03:15:11.949Z,8.57
2023-04-14T03:17:24.941Z,10.15
2023-04-14T03:19:30.772Z,8.73
2023-04-14T03:21:38.161Z,9.02
2023-04-14T03:23:46.086Z,7.00
2023-04-14T03:25:53.408Z,16.55
2023-04-14T03:28:03.232Z,7.32
2023-04-14T03:30:09.440Z,10.10
2023-04-14T03:32:17.954Z,6.68
2023-04-14T03:34:26.247Z,4.30
2023-04-14T03:36:33.547Z,4.93
2023-04-14T03:38:40.803Z,3.80
2023-04-14T03:40:48.868Z,10.60
2023-04-14T03:42:55.306Z,5.75
2023-04-14T03:45:03.172Z,12.57
2023-04-14T03:47:09.108Z,9.73
2023-04-14T03:49:17.633Z,7.15
2023-04-14T03:51:22.163Z,3.33
2023-04-14T03:53:28.020Z,11.90
2023-04-14T03:55:32.542Z,5.20
2023-04-14T03:59:39.047Z,4.88
2023-04-14T04:01:44.401Z,6.68
2023-04-14T04:03:49.098Z,8.93
2023-04-14T04:05:50.817Z,8.50
2023-04-14T04:08:11.252Z,7.80
2023-04-14T04:10:13.586Z,7.53
2023-04-14T04:12:19.214Z,7.53
2023-04-14T04:14:21.728Z,9.43
2023-04-14T04:16:26.750Z,9.38
2023-04-14T04:18:29.134Z,7.75
2023-04-14T04:20:34.689Z,7.40
2023-04-14T04:22:41.057Z,9.15
2023-04-14T04:24:45.978Z,8.07
2023-04-14T04:26:48.141Z,17.20
2023-04-14T04:28:52.575Z,6.55
2023-04-14T04:30:54.793Z,8.60
2023-04-14T04:33:02.102Z,6.75
2023-04-14T04:35:07.382Z,8.30
2023-04-14T04:37:11.961Z,6.80
2023-04-14T04:39:16.117Z,3.72
2023-04-14T04:41:24.783Z,4.13
2023-04-14T04:43:28.778Z,9.00
2023-04-14T04:45:38.969Z,3.78
2023-04-14T04:47:58.888Z,9.35
2023-04-14T04:50:03.744Z,13.43
2023-04-14T04:52:05.336Z,4.32
2023-04-14T04:54:06.837Z,8.15
2023-04-14T04:56:08.409Z,5.53
2023-04-14T04:58:10.011Z,15.80
2023-04-14T05:00:14.292Z,2.88
2023-04-14T05:02:18.649Z,7.00
2023-04-14T05:04:23.298Z,11.50
2023-04-14T05:06:28.258Z,6.70
2023-04-14T05:08:32.418Z,9.52
2023-04-14T05:10:34.718Z,3.83
2023-04-14T05:12:39.014Z,5.05
2023-04-14T05:14:40.410Z,12.25
2023-04-14T05:18:49.219Z,15.95
2023-04-14T05:20:50.836Z,12.98
2023-04-14T05:22:52.390Z,17.77
2023-04-14T05:24:53.856Z,13.48
2023-04-14T05:27:13.108Z,16.33
2023-04-14T05:29:18.538Z,24.38
2023-04-14T05:31:23.295Z,23.83
2023-04-14T05:33:24.783Z,24.13
2023-04-14T05:37:34.488Z,20.50
2023-04-14T05:39:40.391Z,19.75
2023-04-14T05:43:46.199Z,21.95
2023-04-14T05:45:51.308Z,28.05
2023-04-14T05:47:55.658Z,35.22
2023-04-14T05:49:58.438Z,25.02
2023-04-14T05:52:02.602Z,31.13
2023-04-14T05:54:07.013Z,24.55
2023-04-14T05:56:27.614Z,31.90
2023-04-14T05:58:29.005Z,32.65
2023-04-14T06:00:48.828Z,28.20
2023-04-14T06:02:53.259Z,28.45
2023-04-14T06:04:55.229Z,29.10
2023-04-14T06:06:59.710Z,29.92
2023-04-14T06:09:01.650Z,44.88
2023-04-14T06:11:03.309Z,23.45
2023-04-14T06:15:13.035Z,35.05
2023-04-14T06:17:17.306Z,34.55
2023-04-14T06:19:22.174Z,32.65
2023-04-14T06:21:23.608Z,31.45
2023-04-14T06:23:43.611Z,37.38
2023-04-14T06:25:56.669Z,37.30
2023-04-14T06:27:58.684Z,31.02
2023-04-14T06:30:01.073Z,33.08
2023-04-14T06:32:05.168Z,25.35
2023-04-14T06:34:09.571Z,24.95
2023-04-14T06:36:11.255Z,28.25
2023-04-14T06:40:17.000Z,21.83
2023-04-14T06:42:21.218Z,27.75
2023-04-14T06:44:26.469Z,19.92
2023-04-14T06:46:28.680Z,30.42
2023-04-14T06:48:30.805Z,24.58
2023-04-14T06:50:34.113Z,19.67
2023-04-14T06:52:40.398Z,19.98
2023-04-14T06:54:44.327Z,14.50
2023-04-14T06:56:50.757Z,6.43
2023-04-14T06:58:57.101Z,15.57
2023-04-14T07:01:03.046Z,9.98
2023-04-14T07:03:07.865Z,10.75
2023-04-14T07:05:10.852Z,8.70
2023-04-14T07:07:16.524Z,13.18
2023-04-14T07:09:22.843Z,13.15
2023-04-14T07:11:30.009Z,14.38
2023-04-14T07:13:34.531Z,10.30
2023-04-14T07:15:36.161Z,11.02
2023-04-14T07:17:40.460Z,6.70
2023-04-14T07:19:42.509Z,9.82
2023-04-14T07:21:47.055Z,7.93
2023-04-14T07:23:53.443Z,6.75
2023-04-14T07:25:58.525Z,13.60
2023-04-14T07:28:03.477Z,9.27
2023-04-14T07:30:08.659Z,9.45
2023-04-14T07:32:11.919Z,7.32
2023-04-14T07:34:32.962Z,7.32
2023-04-14T07:36:36.402Z,17.55
2023-04-14T07:38:38.050Z,8.30
2023-04-14T07:40:42.422Z,14.95
2023-04-14T07:42:43.862Z,5.82
2023-04-14T07:44:48.203Z,7.80
2023-04-14T07:46:52.534Z,7.50
2023-04-14T07:48:55.957Z,13.65
2023-04-14T07:51:00.798Z,14.60
2023-04-14T07:55:06.203Z,8.15
2023-04-14T07:57:26.288Z,2.45
2023-04-14T07:59:27.936Z,4.68
2023-04-14T08:01:32.411Z,10.98
2023-04-14T08:03:42.013Z,9.63
2023-04-14T08:06:07.419Z,13.20
2023-04-14T08:08:28.330Z,6.63
2023-04-14T08:10:30.873Z,8.00
2023-04-14T08:12:34.974Z,11.13
2023-04-14T08:14:39.183Z,8.73
2023-04-14T08:16:41.689Z,6.57
2023-04-14T08:18:46.125Z,7.28
2023-04-14T08:22:55.604Z,5.53
2023-04-14T08:24:57.116Z,10.65
2023-04-14T08:27:02.283Z,8.65
2023-04-14T08:29:03.924Z,5.13
2023-04-14T08:31:05.712Z,14.57
2023-04-14T08:33:07.184Z,20.42
2023-04-14T08:35:39.386Z,16.10
2023-04-14T08:37:31.418Z,9.48
2023-04-14T08:39:33.379Z,13.00
2023-04-14T08:41:35.202Z,11.18
2023-04-14T08:43:39.248Z,12.35
2023-04-14T08:46:00.419Z,9.05
2023-04-14T08:48:02.828Z,15.25
2023-04-14T08:50:07.214Z,19.48
2023-04-14T08:52:14.683Z,12.18
2023-04-14T08:54:19.437Z,13.30
2023-04-14T08:56:41.172Z,10.05
2023-04-14T08:58:45.273Z,16.73
2023-04-14T09:00:47.076Z,18.27
2023-04-14T09:02:49.407Z,17.33
2023-04-14T09:04:54.081Z,21.65
2023-04-14T09:06:56.680Z,13.82
2023-04-14T09:09:03.939Z,15.85
2023-04-14T09:11:05.618Z,21.52
2023-04-14T09:13:08.934Z,16.05
2023-04-14T09:15:11.672Z,22.90
2023-04-14T09:17:13.163Z,19.65
2023-04-14T09:19:15.989Z,15.25
2023-04-14T09:21:29.439Z,14.65
2023-04-14T09:23:45.196Z,20.15
2023-04-14T09:25:46.991Z,18.50
2023-04-14T09:27:51.582Z,16.15
2023-04-14T09:29:57.039Z,12.63
2023-04-14T09:32:03.759Z,8.38
2023-04-14T09:34:14.774Z,12.23
2023-04-14T09:36:20.223Z,16.60
2023-04-14T09:38:33.086Z,13.13
2023-04-14T09:40:44.975Z,9.98
2023-04-14T09:43:05.869Z,8.63
2023-04-14T09:45:09.350Z,11.68
2023-04-14T09:47:11.138Z,11.73
2023-04-14T09:49:12.806Z,7.50
2023-04-14T09:51:18.795Z,21.73
2023-04-14T09:53:27.706Z,10.98
2023-04-14T09:55:29.485Z,20.08
2023-04-14T09:57:34.450Z,8.40
2023-04-14T09:59:38.954Z,15.52
2023-04-14T10:03:44.537Z,12.93
2023-04-14T10:05:48.755Z,12.98
2023-04-14T10:07:53.148Z,12.10
2023-04-14T10:09:58.048Z,9.00
2023-04-14T10:12:20.523Z,14.80
2023-04-14T10:14:24.873Z,18.42
2023-04-14T10:16:27.331Z,8.80
2023-04-14T10:18:28.936Z,16.45
2023-04-14T10:22:53.642Z,20.85
2023-04-14T10:25:14.436Z,14.15
2023-04-14T10:27:34.723Z,9.32
2023-04-14T10:29:41.018Z,15.18
2023-04-14T10:31:47.244Z,10.45
2023-04-14T10:33:52.453Z,14.85
2023-04-14T10:36:13.274Z,8.73
2023-04-14T10:38:18.276Z,6.80
2023-04-14T10:40:23.435Z,6.00
2023-04-14T10:42:25.142Z,9.65
2023-04-14T10:44:31.498Z,8.15
2023-04-14T10:46:45.002Z,10.25
2023-04-14T10:48:49.525Z,6.03
2023-04-14T10:50:58.997Z,9.90
2023-04-14T10:53:06.934Z,8.25
2023-04-14T10:55:08.863Z,6.90
2023-04-14T10:57:14.557Z,6.90
2023-04-14T10:59:17.561Z,9.20
2023-04-14T11:01:33.233Z,12.63
2023-04-14T11:03:45.099Z,7.68
2023-04-14T11:06:06.567Z,22.77
2023-04-14T11:08:19.468Z,5.53
2023-04-14T11:10:21.461Z,6.07
2023-04-14T11:12:24.481Z,7.68
2023-04-14T11:14:33.264Z,11.73
2023-04-14T11:16:44.610Z,7.53
2023-04-14T11:18:55.610Z,4.95
2023-04-14T11:21:11.588Z,11.57
2023-04-14T11:23:16.711Z,5.25
2023-04-14T11:25:24.090Z,13.52
2023-04-14T11:27:29.586Z,5.93
2023-04-14T11:29:36.057Z,12.43
2023-04-14T11:33:42.500Z,9.60
2023-04-14T11:35:47.394Z,6.78
2023-04-14T11:37:59.482Z,4.45
2023-04-14T11:40:05.548Z,12.52
2023-04-14T11:42:10.097Z,7.93
2023-04-14T11:44:16.051Z,11.25
2023-04-14T11:46:23.080Z,5.18
2023-04-14T11:48:24.553Z,8.85
2023-04-14T11:50:31.367Z,3.92
2023-04-14T11:52:33.712Z,8.10
2023-04-14T11:54:53.537Z,6.38
2023-04-14T11:56:55.070Z,10.68
2023-04-14T11:59:00.743Z,12.77
2023-04-14T12:01:05.170Z,5.40
2023-04-14T12:05:12.121Z,13.05
2023-04-14T12:07:14.889Z,8.65
2023-04-14T12:09:35.463Z,14.35
2023-04-14T12:13:44.604Z,6.68
2023-04-14T12:15:46.453Z,10.10
2023-04-14T12:17:50.878Z,4.28
2023-04-14T12:19:55.563Z,7.55
2023-04-14T12:22:00.058Z,6.63
2023-04-14T12:24:04.348Z,7.57
2023-04-14T12:26:09.532Z,9.18
2023-04-14T12:28:29.728Z,10.30
2023-04-14T12:30:31.211Z,8.20
2023-04-14T12:32:40.726Z,3.90
2023-04-14T12:34:55.408Z,12.35
2023-04-14T12:37:00.140Z,4.20
2023-04-14T12:39:05.531Z,3.13
2023-04-14T12:41:27.721Z,5.78
2023-04-14T12:43:36.696Z,6.75
2023-04-14T12:45:51.783Z,6.00
2023-04-14T12:47:56.871Z,3.67
2023-04-14T12:50:02.581Z,3.67
2023-04-14T12:52:08.290Z,5.47
2023-04-14T12:54:44.770Z,7.20
2023-04-14T12:56:49.151Z,5.55
2023-04-14T12:59:11.405Z,10.52
2023-04-14T13:01:32.063Z,4.82
2023-04-14T13:03:40.865Z,3.22
2023-04-14T13:05:42.958Z,2.50
2023-04-14T13:07:47.072Z,6.18
2023-04-14T13:09:52.033Z,6.20
2023-04-14T13:11:54.993Z,5.43
2023-04-14T13:14:00.552Z,5.55
2023-04-14T13:16:14.703Z,3.58
2023-04-14T13:18:22.531Z,3.08
2023-04-14T13:20:24.148Z,5.32
2023-04-14T13:22:30.201Z,3.58
2023-04-14T13:24:34.546Z,5.25
2023-04-14T13:26:40.247Z,7.28
2023-04-14T13:28:41.941Z,3.10
2023-04-14T13:30:43.923Z,4.53
2023-04-14T13:32:50.164Z,4.25
2023-04-14T13:34:52.548Z,4.28
2023-04-14T13:36:57.269Z,4.07
2023-04-14T13:38:58.757Z,4.60
2023-04-14T13:41:01.864Z,4.88
2023-04-14T13:43:06.177Z,1.50
2023-04-14T13:45:11.020Z,2.55
2023-04-14T13:47:15.224Z,8.63
2023-04-14T13:49:16.637Z,5.28
2023-04-14T13:51:21.892Z,3.75
2023-04-14T13:53:23.494Z,1.80
2023-04-14T13:55:27.825Z,6.30
2023-04-14T13:57:29.342Z,5.72
2023-04-14T13:59:50.246Z,3.05
2023-04-14T14:01:51.809Z,3.17
2023-04-14T14:03:53.646Z,2.22
2023-04-14T14:05:55.409Z,3.50
2023-04-14T14:08:16.628Z,3.22
2023-04-14T14:10:20.897Z,7.90
2023-04-14T14:12:25.140Z,7.47
2023-04-14T14:14:26.544Z,5.70
2023-04-14T14:18:33.426Z,5.95
2023-04-14T14:20:34.966Z,7.53
2023-04-14T14:22:39.149Z,5.78
2023-04-14T14:24:40.605Z,2.37
2023-04-14T14:26:44.706Z,8.40
2023-04-14T14:28:47.193Z,6.32
2023-04-14T14:30:49.569Z,14.25
2023-04-14T14:32:54.075Z,12.40
2023-04-14T14:34:58.236Z,7.97
2023-04-14T14:36:59.775Z,7.28
2023-04-14T14:39:01.682Z,13.63
2023-04-14T14:41:04.030Z,9.45
2023-04-14T14:43:05.445Z,7.13
2023-04-14T14:45:10.074Z,8.23
2023-04-14T14:47:11.617Z,6.95
2023-04-14T14:49:13.817Z,5.45
2023-04-14T14:51:15.573Z,6.60
2023-04-14T14:53:19.588Z,6.35
2023-04-14T14:57:28.673Z,7.05
2023-04-14T14:59:32.074Z,4.25
2023-04-14T15:01:37.344Z,5.25
2023-04-14T15:03:41.638Z,10.70
2023-04-14T15:05:48.479Z,4.30
2023-04-14T15:07:52.939Z,13.40
2023-04-14T15:09:54.488Z,8.73
2023-04-14T15:11:57.121Z,5.80
2023-04-14T15:13:59.830Z,7.03
2023-04-14T15:16:04.625Z,5.03
2023-04-14T15:18:08.944Z,5.60
2023-04-14T15:20:14.190Z,7.13
2023-04-14T15:22:16.800Z,2.90
2023-04-14T15:24:19.592Z,8.25
2023-04-14T15:26:21.177Z,5.30
2023-04-14T15:28:41.287Z,2.45
2023-04-14T15:30:45.384Z,2.20
2023-04-14T15:32:49.828Z,6.05
2023-04-14T15:35:09.911Z,5.35
2023-04-14T15:37:14.201Z,5.85
2023-04-14T15:39:15.744Z,8.65
2023-04-14T15:41:20.328Z,4.60
2023-04-14T15:43:21.818Z,5.90
2023-04-14T15:45:26.237Z,0.93
2023-04-14T15:47:29.577Z,1.83
2023-04-14T15:49:35.679Z,3.58
2023-04-14T15:51:42.049Z,4.03
2023-04-14T15:54:05.136Z,2.67
2023-04-14T15:56:11.882Z,7.25
2023-04-14T15:58:17.695Z,4.80
2023-04-14T16:00:23.537Z,1.65
2023-04-14T16:02:29.785Z,4.00
2023-04-14T16:04:33.605Z,2.03
2023-04-14T16:06:40.285Z,4.22
2023-04-14T16:08:43.838Z,5.10
2023-04-14T16:10:50.433Z,5.65
2023-04-14T16:12:53.932Z,3.25
2023-04-14T16:15:16.292Z,4.20
2023-04-14T16:17:23.748Z,5.13
2023-04-14T16:19:30.295Z,0.70
2023-04-14T16:21:35.252Z,7.03
2023-04-14T16:23:36.998Z,2.60
2023-04-14T16:25:41.623Z,3.25
2023-04-14T16:27:46.224Z,2.42
2023-04-14T16:29:47.926Z,4.80
2023-04-14T16:31:49.574Z,3.10
2023-04-14T16:33:51.310Z,2.08
2023-04-14T16:35:52.933Z,0.52
2023-04-14T16:37:57.212Z,3.45
2023-04-14T16:39:58.825Z,2.80
2023-04-14T16:42:03.000Z,6.67
2023-04-14T16:44:23.139Z,3.60
2023-04-14T16:46:26.128Z,1.75
2023-04-14T16:48:27.784Z,1.95
2023-04-14T16:50:29.515Z,2.45
2023-04-14T16:52:31.146Z,0.63
2023-04-14T16:54:37.739Z,1.57
2023-04-14T16:56:42.064Z,1.50
2023-04-14T16:58:46.434Z,2.90
2023-04-14T17:00:50.615Z,0.80
2023-04-14T17:02:52.365Z,2.22
2023-04-14T17:04:54.166Z,1.02
2023-04-14T17:06:56.929Z,2.20
2023-04-14T17:09:00.837Z,2.47
2023-04-14T17:11:02.644Z,1.95
2023-04-14T17:13:07.153Z,3.03
2023-04-14T17:15:09.041Z,6.10
2023-04-14T17:17:10.695Z,4.22
2023-04-14T17:19:15.975Z,2.15
2023-04-14T17:21:17.628Z,3.55
2023-04-14T17:23:20.374Z,2.33
2023-04-14T17:25:22.001Z,1.42
2023-04-14T17:27:23.477Z,1.08
2023-04-14T17:31:49.884Z,1.92
2023-04-14T17:33:51.386Z,6.47
2023-04-14T17:35:55.779Z,3.72
2023-04-14T17:38:16.015Z,3.88
2023-04-14T17:40:18.432Z,4.85
2023-04-14T17:42:24.992Z,5.07
2023-04-14T17:44:33.591Z,5.50
2023-04-14T17:46:35.078Z,3.35
2023-04-14T17:48:36.595Z,1.27
2023-04-14T17:50:38.079Z,2.08
2023-04-14T17:52:39.760Z,1.83
2023-04-14T17:54:41.435Z,1.70
2023-04-14T17:56:45.947Z,5.90
2023-04-14T17:58:52.090Z,3.85
2023-04-14T18:01:12.478Z,6.15
2023-04-14T18:03:15.820Z,4.80
2023-04-14T18:05:37.349Z,5.45
2023-04-14T18:07:41.920Z,2.80
2023-04-14T18:09:43.459Z,5.50
2023-04-14T18:11:48.032Z,0.65
2023-04-14T18:13:49.514Z,2.65
2023-04-14T18:15:53.534Z,6.50
2023-04-14T18:17:57.881Z,2.88
2023-04-14T18:19:59.642Z,1.38
2023-04-14T18:22:01.233Z,4.07
2023-04-14T18:28:20.113Z,1.57
2023-04-14T18:30:21.511Z,1.90
2023-04-14T18:32:25.303Z,3.75
2023-04-14T18:34:29.597Z,1.85
2023-04-14T18:36:32.430Z,3.43
2023-04-14T18:38:36.457Z,1.33
2023-04-14T18:42:44.996Z,4.50
2023-04-14T18:44:49.381Z,1.70
2023-04-14T18:46:51.474Z,3.42
2023-04-14T18:49:11.772Z,1.23
2023-04-14T18:51:13.357Z,3.10
2023-04-14T18:53:16.893Z,1.70
2023-04-14T18:55:24.403Z,2.10
2023-04-14T18:57:54.943Z,3.45
2023-04-14T19:00:11.830Z,3.43
2023-04-14T19:02:24.142Z,4.18
2023-04-14T19:04:33.679Z,3.92
2023-04-14T19:06:46.743Z,7.13
2023-04-14T19:08:55.592Z,5.78
2023-04-14T19:11:04.804Z,3.60
2023-04-14T19:13:14.503Z,5.30
2023-04-14T19:15:24.924Z,4.07
2023-04-14T19:17:40.432Z,4.95
2023-04-14T19:19:55.123Z,6.43
2023-04-14T19:22:07.668Z,4.25
2023-04-14T19:24:16.759Z,1.90
2023-04-14T19:26:27.977Z,3.45
2023-04-14T19:28:51.948Z,4.57
2023-04-14T19:30:56.934Z,6.68
2023-04-14T19:33:02.065Z,3.10
2023-04-14T19:35:03.631Z,2.38
2023-04-14T19:37:08.085Z,2.85
2023-04-14T19:39:10.169Z,3.03
2023-04-14T19:41:11.801Z,6.03
2023-04-14T19:43:14.991Z,6.93
2023-04-14T19:45:16.616Z,5.40
2023-04-14T19:47:18.132Z,4.90
2023-04-14T19:49:22.825Z,7.30
2023-04-14T19:51:27.944Z,8.00
2023-04-14T19:53:32.128Z,3.38
2023-04-14T19:55:36.510Z,5.93
2023-04-14T19:57:38.151Z,3.80
2023-04-14T19:59:40.024Z,5.03
2023-04-14T20:01:45.424Z,5.53
2023-04-14T20:04:04.692Z,2.72
2023-04-14T20:06:17.660Z,3.17
2023-04-14T20:08:22.634Z,6.28
2023-04-14T20:10:24.148Z,3.03
2023-04-14T20:12:28.510Z,2.90
2023-04-14T20:14:32.990Z,2.63
2023-04-14T20:18:40.413Z,2.70
2023-04-14T20:20:42.615Z,1.70
2023-04-14T20:22:44.337Z,1.30
2023-04-14T20:24:48.477Z,1.67
2023-04-14T20:28:58.210Z,1.30
2023-04-14T20:31:03.305Z,1.77
2023-04-14T20:33:07.793Z,6.38
2023-04-14T20:35:12.134Z,4.47
2023-04-14T20:37:16.563Z,4.85
2023-04-14T20:39:18.251Z,2.88
2023-04-14T20:41:20.606Z,4.72
2023-04-14T20:43:22.289Z,4.70
2023-04-14T20:45:26.621Z,2.65
2023-04-14T20:47:31.193Z,2.42
2023-04-14T20:49:32.721Z,1.92
2023-04-14T20:51:34.245Z,4.50
2023-04-14T20:53:38.627Z,4.90
2023-04-14T20:55:43.487Z,5.03
2023-04-14T20:57:46.277Z,5.03
2023-04-14T20:59:47.730Z,3.03
2023-04-14T21:01:49.652Z,3.67
2023-04-14T21:03:51.248Z,5.05
2023-04-14T21:05:53.278Z,2.58
2023-04-14T21:07:55.118Z,2.53
2023-04-14T21:09:56.539Z,2.17
2023-04-14T21:12:15.587Z,3.95
2023-04-14T21:15:39.933Z,2.70
2023-04-14T21:16:59.337Z,2.55
2023-04-14T21:19:19.667Z,3.25
2023-04-14T21:21:21.485Z,7.28
2023-04-14T21:23:25.916Z,4.22
2023-04-14T21:25:27.404Z,3.10
2023-04-14T21:27:28.832Z,7.20
2023-04-14T21:29:30.445Z,4.45
2023-04-14T21:31:32.018Z,5.28
2023-04-14T21:33:39.314Z,6.35
2023-04-14T21:37:42.125Z,4.55
2023-04-14T21:39:46.562Z,5.32
2023-04-14T21:41:48.496Z,5.28
2023-04-14T21:43:49.933Z,6.93
2023-04-14T21:45:54.470Z,7.85
2023-04-14T21:47:55.918Z,4.93
2023-04-14T21:49:57.535Z,3.50
2023-04-14T21:51:58.994Z,3.55
2023-04-14T21:54:21.654Z,3.55
2023-04-14T21:56:36.242Z,6.45
2023-04-14T21:58:55.331Z,1.70
2023-04-14T22:01:07.101Z,4.95
2023-04-14T22:03:25.850Z,2.35
2023-04-14T22:06:01.592Z,2.70
2023-04-14T22:08:15.895Z,2.42
2023-04-14T22:10:21.932Z,2.08
2023-04-14T22:12:39.600Z,5.88
2023-04-14T22:14:54.477Z,4.00
2023-04-14T22:17:10.777Z,2.17
2023-04-14T22:19:29.075Z,1.85
2023-04-14T22:21:48.444Z,3.67
2023-04-14T22:24:06.996Z,3.13
2023-04-14T22:26:27.090Z,2.78
2023-04-14T22:28:34.779Z,2.83
2023-04-14T22:30:39.019Z,1.75
2023-04-14T22:32:43.190Z,2.00
2023-04-14T22:34:47.636Z,2.88
2023-04-14T22:36:52.428Z,2.50
2023-04-14T22:38:57.056Z,2.15
2023-04-14T22:41:18.373Z,1.63
2023-04-14T22:43:19.872Z,1.25
2023-04-14T22:45:24.069Z,2.92
2023-04-14T22:47:25.632Z,4.88
2023-04-14T22:49:30.081Z,2.65
2023-04-14T22:51:34.774Z,1.27
2023-04-14T22:53:36.236Z,1.48
2023-04-14T22:55:57.974Z,1.60
2023-04-14T22:58:20.079Z,1.85
2023-04-14T23:00:24.593Z,3.22
2023-04-14T23:02:27.493Z,1.73
2023-04-14T23:04:29.364Z,1.98
2023-04-14T23:06:31.049Z,4.38
2023-04-14T23:10:39.154Z,1.57
2023-04-14T23:12:40.972Z,3.58
2023-04-14T23:14:45.461Z,2.92
2023-04-14T23:16:47.012Z,1.83
2023-04-14T23:20:57.425Z,3.25
2023-04-14T23:23:02.677Z,3.30
2023-04-14T23:25:07.307Z,2.88
2023-04-14T23:27:11.415Z,2.70
2023-04-14T23:29:16.007Z,2.53
2023-04-14T23:31:17.993Z,2.65
2023-04-14T23:33:21.965Z,4.43
2023-04-14T23:37:27.640Z,4.10
2023-04-14T23:39:29.349Z,6.13
2023-04-14T23:41:30.874Z,4.68
2023-04-14T23:43:35.136Z,3.42
2023-04-14T23:45:39.428Z,3.90
2023-04-14T23:47:43.701Z,3.67
2023-04-14T23:49:48.057Z,3.80
2023-04-14T23:51:49.522Z,4.38
2023-04-14T23:56:13.921Z,8.02
2023-04-14T23:58:26.026Z,4.95
